createdAt,value
2024-03-15T00:00:48.759Z,0.00
2024-03-15T00:01:48.593Z,0.00
2024-03-15T00:02:48.620Z,0.00
2024-03-15T00:03:48.651Z,0.00
2024-03-15T00:04:48.473Z,0.00
2024-03-15T00:05:48.446Z,0.00
2024-03-15T00:06:48.413Z,0.00
2024-03-15T00:07:48.392Z,0.00
2024-03-15T00:08:48.392Z,0.00
2024-03-15T00:09:48.400Z,0.00
2024-03-15T00:10:48.365Z,0.00
2024-03-15T00:11:48.344Z,0.00
2024-03-15T00:12:48.366Z,0.00
2024-03-15T00:13:48.345Z,0.00
2024-03-15T00:14:48.303Z,0.00
2024-03-15T00:15:48.426Z,0.00
2024-03-15T00:16:48.282Z,0.00
2024-03-15T00:17:48.375Z,0.00
2024-03-15T00:18:48.303Z,0.00
2024-03-15T00:19:48.263Z,0.00
2024-03-15T00:20:48.253Z,0.00
2024-03-15T00:21:48.317Z,0.00
2024-03-15T00:22:48.212Z,0.00
2024-03-15T00:23:48.194Z,0.00
2024-03-15T00:24:48.266Z,0.00
2024-03-15T00:25:48.184Z,0.00
2024-03-15T00:26:48.180Z,0.00
2024-03-15T00:27:48.177Z,0.00
2024-03-15T00:28:48.137Z,0.00
2024-03-15T00:29:48.121Z,0.00
2024-03-15T00:30:48.250Z,0.00
2024-03-15T00:31:48.125Z,0.00
2024-03-15T00:32:48.123Z,0.00
2024-03-15T00:33:48.106Z,0.00
2024-03-15T00:34:48.066Z,0.00
2024-03-15T00:35:48.058Z,0.00
2024-03-15T00:36:48.106Z,0.00
2024-03-15T00:37:48.029Z,0.00
2024-03-15T00:38:48.057Z,0.00
2024-03-15T00:39:48.091Z,0.00
2024-03-15T00:40:48.014Z,0.00
2024-03-15T00:41:47.980Z,0.00
2024-03-15T00:42:48.078Z,0.00
2024-03-15T00:43:47.973Z,0.00
2024-03-15T00:44:47.969Z,0.00
2024-03-15T00:45:48.009Z,0.00
2024-03-15T00:46:47.963Z,0.00
2024-03-15T00:47:47.950Z,0.00
2024-03-15T00:48:47.991Z,0.00
2024-03-15T00:49:47.925Z,0.00
2024-03-15T00:50:47.899Z,0.00
2024-03-15T00:51:47.900Z,0.00
2024-03-15T00:52:47.909Z,0.00
2024-03-15T00:53:47.859Z,0.00
2024-03-15T00:54:47.863Z,0.00
2024-03-15T00:55:47.851Z,0.00
2024-03-15T00:56:47.819Z,0.00
2024-03-15T00:57:47.953Z,0.00
2024-03-15T00:58:47.786Z,0.00
2024-03-15T00:59:47.778Z,0.00
2024-03-15T01:00:47.850Z,0.00
2024-03-15T01:01:47.814Z,0.00
2024-03-15T01:02:47.743Z,0.00
2024-03-15T01:03:47.780Z,0.00
2024-03-15T01:04:47.755Z,0.00
2024-03-15T01:05:47.709Z,0.00
2024-03-15T01:06:47.752Z,0.00
2024-03-15T01:07:47.676Z,0.00
2024-03-15T01:08:47.689Z,0.00
2024-03-15T01:09:47.714Z,0.00
2024-03-15T01:10:47.708Z,0.00
2024-03-15T01:11:47.633Z,0.00
2024-03-15T01:12:47.729Z,0.00
2024-03-15T01:13:47.616Z,0.00
2024-03-15T01:14:47.626Z,0.00
2024-03-15T01:15:47.847Z,0.00
2024-03-15T01:16:47.698Z,0.00
2024-03-15T01:17:47.593Z,0.00
2024-03-15T01:18:47.655Z,0.00
2024-03-15T01:19:47.551Z,0.00
2024-03-15T01:20:47.538Z,0.00
2024-03-15T01:21:47.527Z,0.00
2024-03-15T01:22:47.502Z,0.00
2024-03-15T01:23:47.492Z,0.00
2024-03-15T01:24:47.523Z,0.00
2024-03-15T01:25:47.479Z,0.00
2024-03-15T01:26:47.450Z,0.00
2024-03-15T01:27:47.529Z,0.00
2024-03-15T01:28:47.434Z,0.00
2024-03-15T01:29:47.416Z,0.00
2024-03-15T01:30:47.548Z,0.00
2024-03-15T01:31:47.606Z,0.00
2024-03-15T01:32:47.390Z,0.00
2024-03-15T01:33:47.395Z,0.00
2024-03-15T01:34:47.366Z,0.00
2024-03-15T01:35:47.347Z,0.00
2024-03-15T01:36:47.463Z,0.00
2024-03-15T01:37:47.314Z,0.00
2024-03-15T01:38:47.360Z,0.00
2024-03-15T01:39:47.422Z,0.00
2024-03-15T01:40:47.281Z,0.00
2024-03-15T01:41:47.283Z,0.00
2024-03-15T01:42:47.362Z,0.00
2024-03-15T01:43:47.244Z,0.00
2024-03-15T01:44:47.237Z,0.00
2024-03-15T01:45:47.325Z,0.00
2024-03-15T01:47:08.231Z,0.00
2024-03-15T01:47:47.242Z,0.00
2024-03-15T01:48:47.264Z,0.00
2024-03-15T01:49:47.167Z,0.00
2024-03-15T01:50:47.169Z,0.00
2024-03-15T01:51:47.240Z,0.00
2024-03-15T01:52:47.158Z,0.00
2024-03-15T01:53:47.136Z,0.00
2024-03-15T01:54:47.222Z,0.00
2024-03-15T01:55:47.112Z,0.00
2024-03-15T01:56:47.097Z,0.00
2024-03-15T01:57:47.164Z,0.00
2024-03-15T01:58:47.070Z,0.00
2024-03-15T01:59:47.059Z,0.00
2024-03-15T02:00:47.230Z,0.00
2024-03-15T02:01:47.049Z,0.00
2024-03-15T02:02:47.066Z,0.00
2024-03-15T02:03:47.109Z,0.00
2024-03-15T02:04:47.017Z,0.00
2024-03-15T02:05:47.007Z,0.00
2024-03-15T02:06:47.026Z,0.00
2024-03-15T02:07:46.989Z,0.00
2024-03-15T02:08:46.988Z,0.00
2024-03-15T02:09:46.973Z,0.00
2024-03-15T02:10:46.949Z,0.00
2024-03-15T02:11:46.918Z,0.00
2024-03-15T02:12:47.059Z,0.00
2024-03-15T02:13:46.885Z,0.00
2024-03-15T02:14:46.874Z,0.00
2024-03-15T02:15:47.034Z,0.00
2024-03-15T02:16:46.853Z,0.00
2024-03-15T02:17:46.865Z,0.00
2024-03-15T02:18:46.869Z,0.00
2024-03-15T02:19:46.812Z,0.00
2024-03-15T02:20:46.834Z,0.00
2024-03-15T02:21:46.871Z,0.00
2024-03-15T02:22:46.787Z,0.00
2024-03-15T02:23:46.763Z,0.00
2024-03-15T02:24:46.822Z,0.00
2024-03-15T02:25:46.775Z,0.00
2024-03-15T02:26:46.737Z,0.00
2024-03-15T02:27:46.762Z,0.00
2024-03-15T02:28:46.708Z,0.00
2024-03-15T02:29:46.727Z,0.00
2024-03-15T02:30:46.764Z,0.00
2024-03-15T02:31:46.669Z,0.00
2024-03-15T02:32:46.698Z,0.00
2024-03-15T02:33:46.728Z,0.00
2024-03-15T02:34:46.635Z,0.00
2024-03-15T02:35:46.660Z,0.00
2024-03-15T02:36:46.734Z,0.00
2024-03-15T02:37:46.613Z,0.00
2024-03-15T02:38:46.590Z,0.00
2024-03-15T02:39:46.659Z,0.00
2024-03-15T02:40:46.587Z,0.00
2024-03-15T02:41:46.548Z,0.00
2024-03-15T02:42:46.708Z,0.00
2024-03-15T02:43:46.544Z,0.00
2024-03-15T02:44:46.516Z,0.00
2024-03-15T02:45:46.567Z,0.00
2024-03-15T02:46:46.495Z,0.00
2024-03-15T02:47:46.548Z,0.00
2024-03-15T02:48:46.513Z,0.00
2024-03-15T02:49:46.454Z,0.00
2024-03-15T02:50:46.443Z,0.00
2024-03-15T02:51:46.477Z,0.00
2024-03-15T02:52:46.469Z,0.00
2024-03-15T02:53:46.421Z,0.00
2024-03-15T02:54:46.434Z,0.00
2024-03-15T02:55:46.391Z,0.00
2024-03-15T02:56:46.378Z,0.00
2024-03-15T02:57:46.442Z,0.00
2024-03-15T02:58:46.367Z,0.00
2024-03-15T02:59:46.340Z,0.00
2024-03-15T03:04:19.442Z,0.00
2024-03-15T03:05:22.021Z,0.00
2024-03-15T03:06:19.305Z,0.00
2024-03-15T03:07:19.253Z,0.00
2024-03-15T03:08:19.266Z,0.00
2024-03-15T03:09:19.270Z,0.00
2024-03-15T03:10:19.276Z,0.00
2024-03-15T03:11:19.196Z,0.00
2024-03-15T03:12:19.250Z,0.00
2024-03-15T03:13:19.227Z,0.00
2024-03-15T03:14:19.184Z,0.00
2024-03-15T03:15:19.211Z,0.00
2024-03-15T03:16:19.142Z,0.00
2024-03-15T03:17:19.149Z,0.00
2024-03-15T03:18:19.183Z,0.00
2024-03-15T03:19:19.107Z,0.00
2024-03-15T03:20:19.111Z,0.00
2024-03-15T03:21:19.111Z,0.00
2024-03-15T03:22:19.076Z,0.00
2024-03-15T03:23:19.073Z,0.00
2024-03-15T03:24:19.069Z,0.00
2024-03-15T03:25:19.057Z,0.00
2024-03-15T03:26:19.048Z,0.00
2024-03-15T03:27:19.090Z,0.00
2024-03-15T03:28:19.014Z,0.00
2024-03-15T03:29:18.989Z,0.00
2024-03-15T03:30:19.253Z,0.00
2024-03-15T03:31:18.967Z,0.00
2024-03-15T03:32:18.981Z,0.00
2024-03-15T03:33:19.066Z,0.00
2024-03-15T03:34:18.947Z,0.00
2024-03-15T03:35:18.916Z,0.00
2024-03-15T03:36:19.056Z,0.00
2024-03-15T03:37:18.920Z,0.00
2024-03-15T03:38:18.901Z,0.00
2024-03-15T03:39:18.903Z,0.00
2024-03-15T03:40:18.873Z,0.00
2024-03-15T03:41:18.844Z,0.00
2024-03-15T03:42:18.889Z,0.00
2024-03-15T03:43:18.846Z,0.00
2024-03-15T03:44:18.825Z,0.00
2024-03-15T03:45:19.258Z,0.00
2024-03-15T03:46:18.793Z,0.00
2024-03-15T03:47:18.777Z,0.00
2024-03-15T03:48:18.905Z,0.00
2024-03-15T03:49:18.754Z,0.00
2024-03-15T03:50:18.749Z,0.00
2024-03-15T03:51:18.767Z,0.00
2024-03-15T03:52:18.722Z,0.00
2024-03-15T03:53:18.727Z,0.00
2024-03-15T03:54:18.728Z,0.00
2024-03-15T03:55:18.676Z,0.00
2024-03-15T03:56:18.669Z,0.00
2024-03-15T03:57:18.733Z,0.00
2024-03-15T03:58:18.690Z,0.00
2024-03-15T03:59:18.658Z,0.00
2024-03-15T04:00:19.036Z,0.00
2024-03-15T04:01:19.198Z,0.00
2024-03-15T04:02:18.604Z,0.00
2024-03-15T04:03:33.284Z,0.00
2024-03-15T04:04:18.624Z,0.00
2024-03-15T04:05:18.572Z,0.00
2024-03-15T04:06:18.619Z,0.00
2024-03-15T04:07:18.541Z,0.00
2024-03-15T04:08:18.608Z,0.00
2024-03-15T04:09:18.544Z,0.00
2024-03-15T04:10:18.506Z,0.00
2024-03-15T04:11:18.526Z,0.00
2024-03-15T04:12:18.518Z,0.00
2024-03-15T04:13:18.466Z,0.00
2024-03-15T04:14:18.492Z,0.00
2024-03-15T04:15:25.804Z,0.00
2024-03-15T04:16:19.491Z,0.00
2024-03-15T04:17:18.415Z,0.00
2024-03-15T04:18:18.490Z,0.00
2024-03-15T04:19:18.412Z,0.00
2024-03-15T04:20:18.384Z,0.00
2024-03-15T04:21:18.396Z,0.00
2024-03-15T04:22:18.368Z,0.00
2024-03-15T04:23:18.353Z,0.00
2024-03-15T04:24:18.376Z,0.00
2024-03-15T04:25:18.362Z,0.00
2024-03-15T04:26:18.338Z,0.00
2024-03-15T04:27:18.334Z,0.00
2024-03-15T04:28:18.295Z,0.00
2024-03-15T04:29:20.507Z,0.00
2024-03-15T04:30:18.302Z,0.00
2024-03-15T04:31:18.259Z,0.00
2024-03-15T04:32:18.247Z,0.00
2024-03-15T04:33:18.544Z,0.00
2024-03-15T04:34:18.218Z,0.00
2024-03-15T04:35:18.206Z,0.00
2024-03-15T04:36:18.281Z,0.00
2024-03-15T04:37:18.206Z,0.00
2024-03-15T04:38:18.175Z,0.00
2024-03-15T04:39:18.174Z,0.00
2024-03-15T04:40:18.150Z,0.00
2024-03-15T04:41:18.136Z,0.00
2024-03-15T04:42:18.200Z,0.00
2024-03-15T04:43:18.106Z,0.00
2024-03-15T04:44:18.101Z,0.00
2024-03-15T04:45:18.160Z,0.00
2024-03-15T04:46:18.124Z,0.00
2024-03-15T04:47:18.099Z,0.00
2024-03-15T04:48:18.293Z,0.00
2024-03-15T04:49:18.051Z,0.00
2024-03-15T04:50:18.049Z,0.00
2024-03-15T04:51:18.105Z,0.00
2024-03-15T04:52:18.025Z,0.00
2024-03-15T04:53:18.009Z,0.00
2024-03-15T04:54:18.006Z,0.00
2024-03-15T04:55:17.988Z,0.00
2024-03-15T04:56:17.961Z,0.00
2024-03-15T04:57:18.000Z,0.00
2024-03-15T04:58:17.953Z,0.00
2024-03-15T04:59:17.932Z,0.00
2024-03-15T05:00:17.956Z,0.00
2024-03-15T05:01:17.977Z,0.00
2024-03-15T05:02:17.909Z,0.00
2024-03-15T05:03:17.941Z,0.00
2024-03-15T05:04:17.863Z,0.00
2024-03-15T05:05:18.448Z,0.00
2024-03-15T05:06:23.730Z,0.00
2024-03-15T05:07:18.902Z,0.00
2024-03-15T05:08:17.836Z,0.00
2024-03-15T05:09:17.894Z,0.00
2024-03-15T05:10:18.403Z,0.00
2024-03-15T05:11:17.815Z,0.00
2024-03-15T05:12:17.796Z,0.00
2024-03-15T05:13:17.777Z,0.00
2024-03-15T05:14:17.771Z,0.00
2024-03-15T05:15:17.852Z,0.00
2024-03-15T05:16:17.729Z,0.00
2024-03-15T05:17:17.703Z,0.00
2024-03-15T05:18:17.748Z,0.00
2024-03-15T05:19:20.385Z,0.00
2024-03-15T05:20:17.697Z,0.00
2024-03-15T05:21:17.687Z,0.00
2024-03-15T05:22:17.654Z,0.00
2024-03-15T05:23:17.635Z,0.00
2024-03-15T05:24:17.786Z,0.00
2024-03-15T05:25:18.362Z,0.00
2024-03-15T05:26:17.614Z,0.00
2024-03-15T05:27:17.608Z,0.00
2024-03-15T05:28:17.586Z,0.00
2024-03-15T05:29:17.569Z,0.00
2024-03-15T05:30:17.643Z,0.00
2024-03-15T05:31:17.536Z,0.00
2024-03-15T05:32:17.526Z,0.00
2024-03-15T05:33:17.616Z,0.00
2024-03-15T05:34:17.516Z,0.00
2024-03-15T05:35:17.507Z,0.00
2024-03-15T05:36:17.517Z,0.00
2024-03-15T05:37:17.472Z,0.00
2024-03-15T05:38:17.460Z,0.00
2024-03-15T05:39:17.487Z,0.00
2024-03-15T05:40:17.431Z,0.00
2024-03-15T05:41:17.480Z,0.00
2024-03-15T05:42:17.453Z,0.00
2024-03-15T05:43:17.396Z,0.00
2024-03-15T05:44:17.449Z,0.00
2024-03-15T05:45:17.467Z,0.00
2024-03-15T05:46:17.392Z,0.00
2024-03-15T05:47:17.392Z,0.00
2024-03-15T05:48:17.472Z,0.00
2024-03-15T05:49:17.419Z,0.00
2024-03-15T05:50:17.388Z,0.00
2024-03-15T05:51:17.432Z,0.00
2024-03-15T05:52:17.312Z,0.00
2024-03-15T05:53:17.297Z,0.00
2024-03-15T05:54:17.394Z,0.00
2024-03-15T05:55:17.273Z,0.00
2024-03-15T05:56:17.300Z,0.00
2024-03-15T05:57:17.273Z,0.00
2024-03-15T05:58:17.248Z,0.00
2024-03-15T05:59:38.285Z,0.00
2024-03-15T06:00:18.076Z,0.00
2024-03-15T06:01:17.265Z,5.62
2024-03-15T06:02:17.182Z,5.62
2024-03-15T06:03:17.252Z,5.62
2024-03-15T06:04:17.162Z,5.62
2024-03-15T06:05:17.148Z,5.62
2024-03-15T06:06:17.264Z,5.62
2024-03-15T06:07:17.144Z,5.62
2024-03-15T06:08:17.140Z,5.62
2024-03-15T06:09:17.138Z,5.62
2024-03-15T06:10:17.149Z,5.62
2024-03-15T06:11:17.085Z,5.62
2024-03-15T06:12:17.080Z,5.62
2024-03-15T06:13:17.116Z,5.62
2024-03-15T06:14:17.041Z,5.62
2024-03-15T06:15:17.085Z,5.62
2024-03-15T06:16:17.045Z,11.25
2024-03-15T06:17:17.011Z,11.25
2024-03-15T06:18:17.132Z,11.25
2024-03-15T06:19:16.989Z,11.25
2024-03-15T06:20:17.029Z,11.25
2024-03-15T06:21:16.981Z,11.25
2024-03-15T06:22:16.950Z,11.25
2024-03-15T06:23:16.944Z,16.88
2024-03-15T06:24:16.951Z,16.88
2024-03-15T06:25:16.935Z,16.88
2024-03-15T06:26:16.919Z,16.88
2024-03-15T06:27:16.971Z,16.88
2024-03-15T06:28:16.898Z,16.88
2024-03-15T06:29:16.885Z,16.88
2024-03-15T06:30:16.912Z,16.88
2024-03-15T06:31:16.872Z,16.88
2024-03-15T06:32:16.844Z,16.88
2024-03-15T06:33:16.935Z,16.88
2024-03-15T06:34:16.807Z,22.50
2024-03-15T06:35:16.845Z,22.50
2024-03-15T06:36:16.819Z,22.50
2024-03-15T06:37:16.795Z,22.50
2024-03-15T06:38:16.767Z,22.50
2024-03-15T06:39:16.766Z,22.50
2024-03-15T06:40:16.782Z,22.50
2024-03-15T06:41:16.747Z,22.50
2024-03-15T06:42:16.774Z,22.50
2024-03-15T06:43:16.700Z,22.50
2024-03-15T06:44:16.681Z,22.50
2024-03-15T06:45:16.736Z,22.50
2024-03-15T06:46:16.663Z,22.50
2024-03-15T06:47:17.140Z,22.50
2024-03-15T06:48:16.703Z,22.50
2024-03-15T06:49:16.637Z,28.12
2024-03-15T06:50:16.686Z,33.75
2024-03-15T06:51:16.622Z,33.75
2024-03-15T06:52:16.632Z,33.75
2024-03-15T06:53:16.602Z,33.75
2024-03-15T06:54:17.215Z,33.75
2024-03-15T06:55:16.626Z,39.38
2024-03-15T06:56:16.620Z,39.38
2024-03-15T06:57:16.642Z,45.00
2024-03-15T06:58:23.699Z,45.00
2024-03-15T06:59:17.527Z,45.00
2024-03-15T07:00:16.600Z,45.00
2024-03-15T07:01:16.534Z,45.00
2024-03-15T07:02:16.526Z,39.38
2024-03-15T07:03:16.487Z,50.62
2024-03-15T07:04:16.468Z,61.88
2024-03-15T07:05:16.442Z,67.50
2024-03-15T07:06:16.555Z,67.50
2024-03-15T07:07:16.429Z,67.50
2024-03-15T07:08:16.479Z,61.88
2024-03-15T07:09:16.792Z,56.25
2024-03-15T07:10:16.388Z,56.25
2024-03-15T07:11:16.453Z,56.25
2024-03-15T07:12:16.438Z,61.88
2024-03-15T07:13:16.366Z,61.88
2024-03-15T07:14:16.351Z,61.88
2024-03-15T07:15:16.387Z,56.25
2024-03-15T07:16:16.350Z,56.25
2024-03-15T07:17:16.350Z,61.88
2024-03-15T07:18:16.370Z,61.88
2024-03-15T07:19:16.499Z,61.88
2024-03-15T07:20:16.313Z,61.88
2024-03-15T07:21:16.308Z,67.50
2024-03-15T07:22:16.326Z,67.50
2024-03-15T07:23:16.238Z,61.88
2024-03-15T07:24:16.307Z,56.25
2024-03-15T07:25:16.742Z,61.88
2024-03-15T07:26:16.261Z,67.50
2024-03-15T07:27:16.220Z,67.50
2024-03-15T07:28:16.348Z,67.50
2024-03-15T07:29:16.193Z,78.75
2024-03-15T07:30:16.181Z,78.75
2024-03-15T07:31:16.163Z,78.75
2024-03-15T07:32:16.135Z,78.75
2024-03-15T07:33:16.201Z,78.75
2024-03-15T07:34:16.229Z,78.75
2024-03-15T07:35:16.141Z,78.75
2024-03-15T07:36:16.698Z,84.38
2024-03-15T07:37:16.157Z,84.38
2024-03-15T07:38:16.071Z,90.00
2024-03-15T07:39:16.232Z,90.00
2024-03-15T07:40:16.290Z,90.00
2024-03-15T07:41:16.038Z,84.38
2024-03-15T07:42:16.202Z,78.75
2024-03-15T07:43:16.011Z,73.12
2024-03-15T07:44:16.001Z,73.12
2024-03-15T07:45:16.384Z,95.62
2024-03-15T07:46:16.063Z,95.62
2024-03-15T07:47:16.116Z,101.25
2024-03-15T07:48:16.036Z,101.25
2024-03-15T07:49:16.030Z,101.25
2024-03-15T07:50:16.009Z,106.88
2024-03-15T07:51:16.003Z,112.50
2024-03-15T07:52:15.976Z,112.50
2024-03-15T07:53:15.895Z,106.88
2024-03-15T07:54:15.919Z,95.62
2024-03-15T07:55:15.893Z,90.00
2024-03-15T07:56:15.947Z,90.00
2024-03-15T07:57:15.966Z,90.00
2024-03-15T07:58:15.895Z,90.00
2024-03-15T07:59:15.837Z,95.62
2024-03-15T08:00:16.052Z,95.62
2024-03-15T08:01:16.166Z,95.62
2024-03-15T08:02:15.928Z,95.62
2024-03-15T08:03:15.816Z,101.25
2024-03-15T08:04:15.886Z,101.25
2024-03-15T08:05:15.761Z,106.88
2024-03-15T08:06:16.881Z,101.25
2024-03-15T08:07:15.757Z,95.62
2024-03-15T08:08:15.722Z,90.00
2024-03-15T08:09:15.729Z,95.62
2024-03-15T08:10:16.273Z,84.38
2024-03-15T08:11:15.866Z,73.12
2024-03-15T08:12:15.968Z,50.62
2024-03-15T08:13:15.717Z,50.62
2024-03-15T08:14:15.665Z,61.88
2024-03-15T08:15:15.766Z,67.50
2024-03-15T08:16:15.673Z,78.75
2024-03-15T08:17:15.626Z,84.38
2024-03-15T08:18:15.761Z,84.38
2024-03-15T08:19:15.761Z,78.75
2024-03-15T08:20:15.592Z,73.12
2024-03-15T08:21:15.599Z,67.50
2024-03-15T08:22:15.628Z,61.88
2024-03-15T08:23:15.794Z,67.50
2024-03-15T08:24:15.596Z,84.38
2024-03-15T08:25:15.587Z,106.88
2024-03-15T08:26:15.521Z,129.38
2024-03-15T08:27:15.540Z,140.62
2024-03-15T08:28:18.273Z,129.38
2024-03-15T08:29:15.515Z,106.88
2024-03-15T08:30:15.514Z,106.88
2024-03-15T08:31:15.478Z,118.12
2024-03-15T08:32:15.507Z,129.38
2024-03-15T08:33:15.544Z,140.62
2024-03-15T08:34:15.469Z,140.62
2024-03-15T08:35:15.824Z,118.12
2024-03-15T08:36:15.430Z,90.00
2024-03-15T08:37:15.414Z,95.62
2024-03-15T08:38:15.406Z,101.25
2024-03-15T08:39:15.460Z,101.25
2024-03-15T08:40:15.562Z,112.50
2024-03-15T08:41:15.341Z,106.88
2024-03-15T08:42:15.358Z,95.62
2024-03-15T08:43:15.368Z,84.38
2024-03-15T08:44:15.316Z,90.00
2024-03-15T08:45:15.338Z,78.75
2024-03-15T08:46:15.307Z,84.38
2024-03-15T08:47:15.281Z,84.38
2024-03-15T08:48:15.336Z,90.00
2024-03-15T08:49:15.327Z,101.25
2024-03-15T08:50:15.261Z,112.50
2024-03-15T08:51:15.350Z,118.12
2024-03-15T08:52:15.285Z,129.38
2024-03-15T08:53:15.304Z,146.25
2024-03-15T08:54:15.232Z,118.12
2024-03-15T08:55:15.314Z,106.88
2024-03-15T08:56:15.163Z,101.25
2024-03-15T08:57:15.170Z,84.38
2024-03-15T08:58:15.155Z,90.00
2024-03-15T08:59:15.137Z,106.88
2024-03-15T09:00:15.208Z,135.00
2024-03-15T09:01:15.233Z,140.62
2024-03-15T09:02:15.183Z,135.00
2024-03-15T09:03:15.099Z,135.00
2024-03-15T09:04:15.127Z,146.25
2024-03-15T09:05:15.066Z,135.00
2024-03-15T09:06:15.207Z,112.50
2024-03-15T09:07:15.128Z,112.50
2024-03-15T09:08:15.049Z,101.25
2024-03-15T09:09:15.149Z,84.38
2024-03-15T09:10:15.403Z,73.12
2024-03-15T09:11:15.029Z,67.50
2024-03-15T09:12:15.057Z,84.38
2024-03-15T09:13:15.212Z,101.25
2024-03-15T09:14:15.026Z,135.00
2024-03-15T09:15:14.975Z,106.88
2024-03-15T09:16:14.986Z,118.12
2024-03-15T09:17:14.933Z,129.38
2024-03-15T09:18:15.153Z,129.38
2024-03-15T09:19:14.957Z,123.75
2024-03-15T09:20:14.899Z,135.00
2024-03-15T09:21:14.940Z,129.38
2024-03-15T09:22:14.931Z,129.38
2024-03-15T09:23:14.855Z,140.62
2024-03-15T09:24:14.864Z,146.25
2024-03-15T09:25:14.827Z,140.62
2024-03-15T09:26:14.845Z,135.00
2024-03-15T09:27:14.919Z,135.00
2024-03-15T09:28:14.941Z,140.62
2024-03-15T09:29:14.825Z,146.25
2024-03-15T09:30:14.819Z,146.25
2024-03-15T09:31:28.786Z,146.25
2024-03-15T09:32:16.583Z,146.25
2024-03-15T09:33:14.964Z,140.62
2024-03-15T09:34:14.852Z,140.62
2024-03-15T09:35:14.891Z,140.62
2024-03-15T09:36:14.736Z,146.25
2024-03-15T09:37:14.690Z,140.62
2024-03-15T09:38:14.808Z,151.88
2024-03-15T09:39:14.855Z,157.50
2024-03-15T09:40:14.705Z,163.12
2024-03-15T09:41:14.667Z,163.12
2024-03-15T09:42:14.861Z,163.12
2024-03-15T09:43:14.708Z,168.75
2024-03-15T09:44:14.872Z,168.75
2024-03-15T09:45:14.622Z,168.75
2024-03-15T09:46:14.666Z,168.75
2024-03-15T09:47:14.571Z,168.75
2024-03-15T09:48:14.723Z,174.38
2024-03-15T09:49:14.613Z,174.38
2024-03-15T09:50:14.544Z,180.00
2024-03-15T09:51:14.566Z,185.62
2024-03-15T09:52:14.523Z,185.62
2024-03-15T09:53:14.501Z,191.25
2024-03-15T09:54:14.540Z,196.88
2024-03-15T09:55:14.720Z,196.88
2024-03-15T09:56:14.499Z,196.88
2024-03-15T09:57:14.514Z,196.88
2024-03-15T09:58:14.446Z,202.50
2024-03-15T09:59:14.438Z,202.50
2024-03-15T10:00:14.548Z,202.50
2024-03-15T10:01:14.583Z,202.50
2024-03-15T10:02:14.506Z,202.50
2024-03-15T10:03:14.422Z,196.88
2024-03-15T10:04:14.385Z,196.88
2024-03-15T10:05:14.394Z,196.88
2024-03-15T10:06:14.381Z,202.50
2024-03-15T10:07:14.412Z,202.50
2024-03-15T10:08:14.366Z,202.50
2024-03-15T10:09:14.856Z,196.88
2024-03-15T10:10:14.403Z,196.88
2024-03-15T10:11:14.339Z,196.88
2024-03-15T10:12:14.312Z,196.88
2024-03-15T10:13:14.478Z,191.25
2024-03-15T10:14:14.336Z,174.38
2024-03-15T10:15:14.368Z,168.75
2024-03-15T10:16:14.261Z,151.88
2024-03-15T10:17:14.218Z,168.75
2024-03-15T10:18:14.615Z,185.62
2024-03-15T10:19:14.391Z,191.25
2024-03-15T10:20:14.234Z,196.88
2024-03-15T10:21:14.199Z,196.88
2024-03-15T10:22:14.207Z,196.88
2024-03-15T10:23:14.184Z,202.50
2024-03-15T10:24:14.328Z,196.88
2024-03-15T10:25:14.253Z,202.50
2024-03-15T10:26:14.122Z,185.62
2024-03-15T10:27:14.402Z,185.62
2024-03-15T10:28:14.116Z,191.25
2024-03-15T10:29:14.115Z,196.88
2024-03-15T10:30:14.135Z,196.88
2024-03-15T10:31:14.222Z,208.12
2024-03-15T10:32:14.048Z,202.50
2024-03-15T10:33:14.176Z,208.12
2024-03-15T10:34:14.504Z,202.50
2024-03-15T10:35:14.012Z,196.88
2024-03-15T10:36:14.409Z,202.50
2024-03-15T10:37:14.107Z,208.12
2024-03-15T10:38:14.000Z,202.50
2024-03-15T10:39:14.227Z,191.25
2024-03-15T10:40:14.051Z,180.00
2024-03-15T10:41:13.996Z,191.25
2024-03-15T10:42:13.990Z,191.25
2024-03-15T10:43:13.986Z,191.25
2024-03-15T10:44:13.944Z,191.25
2024-03-15T10:45:14.002Z,180.00
2024-03-15T10:46:13.891Z,168.75
2024-03-15T10:47:13.894Z,151.88
2024-03-15T10:48:14.255Z,168.75
2024-03-15T10:49:13.897Z,168.75
2024-03-15T10:50:13.888Z,157.50
2024-03-15T10:51:13.879Z,140.62
2024-03-15T10:52:13.915Z,101.25
2024-03-15T10:53:13.806Z,101.25
2024-03-15T10:54:13.862Z,101.25
2024-03-15T10:55:28.568Z,90.00
2024-03-15T10:56:13.768Z,73.12
2024-03-15T10:57:13.846Z,73.12
2024-03-15T10:58:13.841Z,73.12
2024-03-15T10:59:13.750Z,45.00
2024-03-15T11:00:14.021Z,39.38
2024-03-15T11:01:13.759Z,33.75
2024-03-15T11:02:13.794Z,33.75
2024-03-15T11:03:13.744Z,33.75
2024-03-15T11:04:13.910Z,56.25
2024-03-15T11:05:13.807Z,95.62
2024-03-15T11:06:13.769Z,106.88
2024-03-15T11:07:13.791Z,118.12
2024-03-15T11:08:13.627Z,112.50
2024-03-15T11:09:13.671Z,168.75
2024-03-15T11:10:13.684Z,191.25
2024-03-15T11:11:13.640Z,191.25
2024-03-15T11:12:13.610Z,191.25
2024-03-15T11:13:13.592Z,191.25
2024-03-15T11:14:13.561Z,180.00
2024-03-15T11:15:13.594Z,185.62
2024-03-15T11:16:13.559Z,191.25
2024-03-15T11:17:13.669Z,196.88
2024-03-15T11:18:13.601Z,196.88
2024-03-15T11:19:13.497Z,202.50
2024-03-15T11:20:13.544Z,208.12
2024-03-15T11:21:13.476Z,191.25
2024-03-15T11:22:13.537Z,191.25
2024-03-15T11:23:13.450Z,196.88
2024-03-15T11:24:13.477Z,213.75
2024-03-15T11:25:13.478Z,213.75
2024-03-15T11:26:13.438Z,219.38
2024-03-15T11:27:13.442Z,225.00
2024-03-15T11:28:13.606Z,225.00
2024-03-15T11:29:13.384Z,213.75
2024-03-15T11:30:13.462Z,202.50
2024-03-15T11:31:13.598Z,185.62
2024-03-15T11:32:13.374Z,174.38
2024-03-15T11:33:13.463Z,168.75
2024-03-15T11:34:13.433Z,174.38
2024-03-15T11:35:13.323Z,185.62
2024-03-15T11:36:13.377Z,196.88
2024-03-15T11:37:13.541Z,196.88
2024-03-15T11:38:13.305Z,196.88
2024-03-15T11:39:13.297Z,180.00
2024-03-15T11:40:13.279Z,185.62
2024-03-15T11:41:13.257Z,191.25
2024-03-15T11:42:13.348Z,213.75
2024-03-15T11:43:14.134Z,219.38
2024-03-15T11:44:13.263Z,225.00
2024-03-15T11:45:13.257Z,225.00
2024-03-15T11:46:13.266Z,225.00
2024-03-15T11:47:13.202Z,230.62
2024-03-15T11:48:13.261Z,264.38
2024-03-15T11:49:13.284Z,241.88
2024-03-15T11:50:13.164Z,225.00
2024-03-15T11:51:13.250Z,247.50
2024-03-15T11:52:13.312Z,253.12
2024-03-15T11:53:13.125Z,225.00
2024-03-15T11:54:13.139Z,208.12
2024-03-15T11:55:13.178Z,219.38
2024-03-15T11:56:13.083Z,219.38
2024-03-15T11:57:13.150Z,219.38
2024-03-15T11:58:13.095Z,230.62
2024-03-15T11:59:13.106Z,196.88
2024-03-15T12:00:13.054Z,196.88
2024-03-15T12:01:13.154Z,213.75
2024-03-15T12:02:13.122Z,208.12
2024-03-15T12:03:13.176Z,185.62
2024-03-15T12:04:13.178Z,168.75
2024-03-15T12:05:12.987Z,163.12
2024-03-15T12:06:12.986Z,168.75
2024-03-15T12:07:13.034Z,180.00
2024-03-15T12:08:12.946Z,202.50
2024-03-15T12:09:34.041Z,236.25
2024-03-15T12:10:12.947Z,219.38
2024-03-15T12:11:12.943Z,191.25
2024-03-15T12:12:12.916Z,202.50
2024-03-15T12:13:12.965Z,202.50
2024-03-15T12:14:12.873Z,191.25
2024-03-15T12:15:12.897Z,180.00
2024-03-15T12:16:12.918Z,157.50
2024-03-15T12:17:12.838Z,180.00
2024-03-15T12:18:13.035Z,185.62
2024-03-15T12:19:12.832Z,191.25
2024-03-15T12:20:12.833Z,191.25
2024-03-15T12:21:12.805Z,202.50
2024-03-15T12:22:12.785Z,225.00
2024-03-15T12:23:12.756Z,180.00
2024-03-15T12:24:12.849Z,196.88
2024-03-15T12:25:12.762Z,157.50
2024-03-15T12:26:12.760Z,174.38
2024-03-15T12:27:12.806Z,202.50
2024-03-15T12:28:12.712Z,185.62
2024-03-15T12:29:12.709Z,230.62
2024-03-15T12:30:12.834Z,247.50
2024-03-15T12:31:12.700Z,213.75
2024-03-15T12:32:12.663Z,225.00
2024-03-15T12:33:12.849Z,225.00
2024-03-15T12:34:12.688Z,236.25
2024-03-15T12:35:12.628Z,264.38
2024-03-15T12:36:12.692Z,202.50
2024-03-15T12:37:12.626Z,180.00
2024-03-15T12:38:12.606Z,151.88
2024-03-15T12:39:12.602Z,135.00
2024-03-15T12:40:12.611Z,135.00
2024-03-15T12:41:12.565Z,151.88
2024-03-15T12:42:12.547Z,168.75
2024-03-15T12:43:12.546Z,174.38
2024-03-15T12:44:12.528Z,140.62
2024-03-15T12:45:12.527Z,135.00
2024-03-15T12:46:12.566Z,140.62
2024-03-15T12:47:12.496Z,135.00
2024-03-15T12:48:13.190Z,118.12
2024-03-15T12:49:12.527Z,90.00
2024-03-15T12:50:15.293Z,84.38
2024-03-15T12:51:12.471Z,101.25
2024-03-15T12:52:12.426Z,140.62
2024-03-15T12:53:12.412Z,146.25
2024-03-15T12:54:12.412Z,129.38
2024-03-15T12:55:12.395Z,106.88
2024-03-15T12:56:12.395Z,101.25
2024-03-15T12:57:14.978Z,101.25
2024-03-15T12:58:12.484Z,106.88
2024-03-15T12:59:12.382Z,118.12
2024-03-15T13:00:12.345Z,135.00